Résultats TOP 2016

Classement Triathlon Original de Porquerolles / 24 septembre 2016
Epreuve longue distance (TOP)

CLNOMSPRENOMSSEXECL SXDOSNaissanceCATCL CATEQUIPETEMPSNAT1CL N1NAT2CL N2TRS1CL T1B&RCL B&RTRS2CL T2TRAILCL TRAIL
1ADRIEN / WILLIAMCarret / Th‚odetM1311983SEN1LEMUR TEAM04:04:1700:16:09.991000:17:51.221600:03:57.93902:17:42.88100:00:26.29601:08:08.151
2MICKAÓL / YOHANNMengolli / CoquoinM2511976VET1Zin des frousses04:11:5800:15:52.46600:15:37.72300:04:04.841102:25:37.71200:00:31.351301:10:13.672
3AMAURY / VIRGINIEMonchiet / VidalX1481985SEN1Nine et Momo04:21:3700:12:30.29100:12:57.13100:02:07.23202:38:20.16600:00:37.081901:15:05.044
4JEAN-LAURENT / ANTOINEVictor / BuatM3141974VET2les sardines04:32:2900:15:07.74300:16:20.62600:03:54.45802:43:36.00900:00:47.182601:12:42.623
5LUC / NICOLASGalea / CauberghsM4131981SEN2les 2 jant‚s04:36:2200:16:05.96800:17:40.071500:04:02.751002:41:40.06700:00:20.52101:16:32.045
6JEAN-MICHEL / MARINACiron / VidilX2421978SEN2CIRON-VIDIL FAMILY04:38:5100:15:20.80500:15:59.04400:02:47.78402:34:14.58300:00:39.002201:29:49.4415
7MATHIEU / MAGALIArnoux / ArnouxX3171972VET1Les palmiers04:42:4200:16:23.041400:16:41.44700:03:01.82502:46:10.431200:01:03.383501:19:21.026
8CYRIL / LOØCMetais / LancouM5381962VET3ARROWS TEAM04:43:0900:15:18.85400:18:50.082100:03:23.84602:34:53.89400:00:42.612401:29:58.9316
9HUBERT / MICKAÓLDamoy / LecuivreM641969VET4Fit Tri04:47:0500:16:30.251600:15:13.58200:08:56.563702:44:53.081000:00:38.802001:20:51.917
10LAURENT / AGNÔSFoulquier / BerthonnierX4241972VET2Cryoth‚rapie Vaucluse04:48:3400:16:46.591800:17:35.381300:03:36.48702:41:41.66800:01:04.243601:27:49.6312
11LUC / ANNE-SOPHIEHollande / ChatronX5441962VET3Levallois Triathlon04:52:3600:16:23.521500:17:36.471400:02:03.29102:49:34.721500:00:33.491701:26:23.5411
12BRUNO / MICHAÓLB‚gard / GourdyM7341986SEN3TeamVilleurbanne04:53:5200:16:05.16700:17:11.671000:04:54.401502:45:49.941100:00:36.551801:29:14.0114
13JRMIE / KVINYvon / CailleM871986SEN4Gentils Pirates04:55:1900:17:13.652000:18:46.912000:06:18.242602:48:26.291400:00:43.892501:23:49.149
14LUDOVIC / CDRICDelapeyriŠre / LegoyM9271978SEN5Piouwit04:57:0000:18:16.812600:20:00.142700:04:58.791802:35:53.28500:00:52.013001:36:57.9825
15YANNICK / OLIVERVillar / SannaM10201980SEN6Gomorra04:57:5800:16:09.43900:17:18.071200:05:54.222402:54:37.641900:00:38.962101:23:19.318
16YOUNÔS / YANNICKFassi-Fehri / GhirardM11221974VET5Les Bal Tringues04:59:0600:16:15.371300:17:13.991100:05:21.412002:46:23.181300:00:30.601201:33:20.8121
17CHRISTINE / FRANCKSeux / NamsylX6281968VET4Toufouteam05:09:1000:17:16.722100:18:42.721900:04:52.781402:50:42.241600:00:50.402701:36:44.7524
18JORIS / FRAN€OIS-XAVIERBruneel / GeslinM1211978SEN7MD Fever05:10:0500:18:58.783300:20:28.333000:04:55.981702:52:41.411700:00:26.92701:32:33.5519
19ELISABETH / VINCENTDugos / DugosX7491959VET5Libourne Triathlon 205:11:3500:16:14.221200:16:54.67800:04:22.631202:55:56.432000:01:07.183701:36:59.1426
20VRONIQUE / PIERREBellon / CornetX8231962VET6Les Flying Pingouins05:15:3500:18:49.243100:19:10.092200:04:23.411302:54:16.321800:00:50.882901:38:04.0927
21JEAN-FRAN€OIS / EMMANUELDonati / AmirayanM13401972VET6Les Cousins05:16:1700:16:34.741700:16:57.55900:05:41.222303:00:24.922100:00:32.391401:36:05.2023
22FABIAN / CAROLINEDorigny / PetitX931962VET7Les Sardines05:16:1800:18:21.062700:19:10.672300:07:14.453103:04:51.232500:00:26.17501:26:13.8110
23GUILLAUME / STPHANECouzon / CarbonneauM14451973VET7Les CarboCouz05:19:3900:20:04.753700:24:17.134000:05:24.292103:01:00.542200:00:23.67301:28:28.4513
24MARION / ERWANAnnicchiarico / PetillonX10371966VET8Annicchiarico / Petillon05:22:3600:16:12.451100:20:28.222900:02:28.50303:08:13.892700:00:25.44401:34:47.1022
25FRDRIC / PHILIPPEMagron / BenayounM15471968VET8Les champions du monde05:30:1900:17:29.652400:18:03.821700:10:15.453903:03:05.762400:00:32.981601:40:50.5130
26FLORENCE / NICOLASBonnevialle / BonnevialleX11101977SEN3Les Boni05:30:5300:18:01.862500:24:51.624100:06:57.543003:07:19.152600:00:23.41201:33:19.3920
27BENO×T / PATRICEVeyrines / MabyM16461971VET9Dream team du coeur05:35:1100:17:17.982300:20:56.123300:05:18.871903:08:27.402800:00:29.52901:42:40.6631
28RAPHAÓL / STPHANMaillant / RostagnoM17501970VET10Just‚ph'dream05:36:1400:18:26.352800:19:36.772400:07:24.393203:01:05.152300:01:18.133901:48:23.0136
29BARBARA / RONANHalary / QuillerouX12181970VET9BAJ05:42:3800:14:59.65200:22:23.493800:08:47.303503:23:50.573400:00:53.653101:31:42.7218
30ROMAIN / DOROTHELetartre / LetartreX1391976VET10FIRSTKISS 2005:45:4900:17:06.191900:18:17.231800:26:04.434303:12:55.982900:00:32.581501:30:52.1517
31FRAN€OISE / FRAN€OISGeffraye / GeffrayeX14191965VET11Qui va piano va sano05:53:4200:18:35.392900:19:59.522600:08:47.063403:21:50.783100:03:41.794301:40:46.7129
32VINCENT / STPHANIELe Vaslo / CaylaX15391973VET12LES RAIDEUSES DE LEVALLOIS05:58:1600:20:52.944000:20:20.932800:05:58.132503:22:10.333200:00:30.151101:48:23.0237
33NICOLAS / ERICLacouture / GalloneM18151968VET11Anakin & Yoda05:59:5100:17:17.962200:15:59.65500:08:48.183603:29:12.963600:00:59.673301:47:31.7935
34BERTRAND / PHILIPPEBernadac / SevinM19361963VET12BufMul06:01:2000:18:58.633200:20:33.883100:16:24.014203:17:24.623000:02:24.284101:45:34.3934
35JEAN-CHRISTOPHE / FRAN€OISGuimard / MoreauM20211964VET13Gasteropotes06:03:3000:20:00.183600:22:08.553700:13:34.554103:22:23.013300:01:35.734001:43:47.4933
36VIRGINIE / ALEXANDREBordet / GatierX1661967VET13GRETA06:11:5500:23:09.894100:26:35.964300:04:55.591603:33:12.483800:00:58.113201:43:02.1732
37XAVIER / FLORENTde Bernede / GrauerM2121982SEN8KX106:16:1200:19:59.103500:21:47.513500:13:16.594003:39:51.264000:00:40.262301:40:37.1228
38HORTENSE / LAURENTLefebure / LefebureX1751968VET14CHOUCHOU ET LOULOU06:17:1600:19:18.803400:20:48.183200:06:19.552703:34:55.623900:00:50.532801:55:02.8539
39JEAN-BAPTISTE / SVERINEGuillot / GuillotX1881964VET15Salins06:17:2600:18:45.733000:19:57.382500:05:26.032203:42:48.184100:01:13.723801:49:14.5338
40EMMANUEL / NATACHAAllaeys / AllaeysX19111969VET16OK06:22:2200:23:30.714300:24:00.623900:08:29.133303:29:50.323700:00:28.86801:56:01.4740
41JEAN-MARC / NICOLASTerrier / ChoteauM22351962VET14NO PUBLIK06:23:4400:20:31.903900:21:57.883600:10:01.373803:28:23.573500:02:25.144202:00:23.1842
42YVES / CATHERINEMonin / LedouxX20251958VET17Monin / Ledoux06:41:5500:20:06.453800:21:21.403400:06:29.612903:56:50.854300:00:59.723401:56:06.1941
43VZIANE / GUILLAUMEFaure / FaureX21331969VET18Dulan06:55:1400:23:22.064200:25:17.414200:06:23.382803:48:30.094200:00:29.811002:11:10.7843
Suivez-nous